Time;durP1;ratioP1;P1;durP2;ratioP2;P2;SDS_P1;SDS_P2;PMS_P1;PMS_P2;Temp;Humidity;BMP_temperature;BMP_pressure;BME280_temperature;BME280_humidity;BME280_pressure;Samples;Min_cycle;Max_cycle;Signal;HPM_P1;HPM_P2
2021/04/19 00:01:19;;;;;;;;;;;;;;;8.45;85.08;101362.82;1756871;81;21143;-75
2021/04/19 00:03:46;;;;;;;;;;;;;;;8.43;85.10;101359.00;1756861;81;20531;-75
2021/04/19 00:06:14;;;;;;;;;;;;;;;8.45;85.16;101373.17;1756856;81;20117;-75
2021/04/19 00:08:42;;;;;;;;;;;;;;;8.45;85.21;101377.89;1756928;81;20712;-75
2021/04/19 00:11:11;;;;;;;;;;;;;;;8.47;85.40;101374.77;1756793;81;20503;-75
2021/04/19 00:13:39;;;;;;;;;;;;;;;8.50;85.40;101375.92;1756816;81;21271;-74
2021/04/19 00:16:07;;;;;;;;;;;;;;;8.50;85.27;101365.57;1756706;81;20113;-74
2021/04/19 00:18:35;;;;;;;;;;;;;;;8.50;85.24;101364.28;1756741;81;20260;-74
2021/04/19 00:21:06;;;;;;;;;;;;;;;8.53;85.49;101369.77;1756734;81;20121;-75
2021/04/19 00:23:36;;;;;;;;;;;;;;;8.54;85.58;101372.73;1756854;81;20173;-75
2021/04/19 00:26:05;;;;;;;;;;;;;;;8.56;85.64;101372.66;1756762;81;21209;-75
2021/04/19 00:28:33;;;;;;;;;;;;;;;8.59;85.57;101377.23;1758826;81;20129;-74
2021/04/19 00:31:03;;;;;;;;;;;;;;;8.59;85.42;101374.64;1759623;81;20153;-75
2021/04/19 00:33:31;;;;;;;;;;;;;;;8.59;85.51;101375.94;1756785;81;21019;-74
2021/04/19 00:36:00;;;;;;;;;;;;;;;8.62;85.57;101378.83;1756862;81;20228;-74
2021/04/19 00:38:28;;;;;;;;;;;;;;;8.63;85.48;101377.94;1756780;81;21675;-74
2021/04/19 00:40:57;;;;;;;;;;;;;;;8.65;85.34;101369.19;1756653;81;20150;-75
2021/04/19 00:43:25;;;;;;;;;;;;;;;8.67;85.16;101369.13;1757463;81;20271;-75
2021/04/19 00:46:01;;;;;;;;;;;;;;;8.67;85.05;101363.95;1758602;81;20153;-74
2021/04/19 00:48:22;;;;;;;;;;;;;;;8.67;84.94;101360.91;1757382;81;20498;-74
2021/04/19 00:50:55;;;;;;;;;;;;;;;8.67;85.01;101362.66;1758704;81;21589;-75
2021/04/19 00:53:19;;;;;;;;;;;;;;;8.67;85.25;101363.95;1758217;81;20212;-75
2021/04/19 00:55:47;;;;;;;;;;;;;;;8.69;85.36;101362.13;1758798;81;20220;-75
2021/04/19 00:58:15;;;;;;;;;;;;;;;8.72;85.11;101355.50;1758652;81;20211;-75
2021/04/19 01:00:44;;;;;;;;;;;;;;;8.74;84.95;101360.17;1758658;81;20244;-74
2021/04/19 01:03:11;;;;;;;;;;;;;;;8.77;84.76;101358.73;1758763;81;22198;-74
2021/04/19 01:05:40;;;;;;;;;;;;;;;8.80;84.81;101364.61;1758695;81;20237;-74
2021/04/19 01:08:09;;;;;;;;;;;;;;;8.80;84.94;101363.77;1760016;81;20272;-74
2021/04/19 01:10:38;;;;;;;;;;;;;;;8.81;85.10;101373.18;1759363;81;20329;-74
2021/04/19 01:13:08;;;;;;;;;;;;;;;8.82;85.35;101372.28;1731308;81;36239;-74
2021/04/19 01:15:36;;;;;;;;;;;;;;;8.79;85.47;101374.56;1758592;81;21827;-74
2021/04/19 01:18:05;;;;;;;;;;;;;;;8.78;85.53;101377.20;1758455;81;20208;-74
2021/04/19 01:20:46;;;;;;;;;;;;;;;8.78;85.51;101373.33;1758792;81;20503;-75
2021/04/19 01:23:14;;;;;;;;;;;;;;;8.80;85.28;101376.25;1758135;81;20588;-74
2021/04/19 01:25:44;;;;;;;;;;;;;;;8.79;85.08;101370.68;1758666;81;20220;-74
2021/04/19 01:28:12;;;;;;;;;;;;;;;8.76;84.99;101369.53;1758641;81;21147;-74
2021/04/19 01:30:44;;;;;;;;;;;;;;;8.75;85.02;101366.55;1758610;81;20223;-74
2021/04/19 01:33:11;;;;;;;;;;;;;;;8.73;85.08;101374.01;1758685;81;20558;-73
2021/04/19 01:35:41;;;;;;;;;;;;;;;8.69;85.28;101372.02;1758662;81;20499;-74
2021/04/19 01:38:10;;;;;;;;;;;;;;;8.63;85.32;101367.58;1758567;81;20221;-72
2021/04/19 01:40:38;;;;;;;;;;;;;;;8.54;85.56;101377.91;1758543;81;21140;-73
2021/04/19 01:43:06;;;;;;;;;;;;;;;8.42;85.91;101378.48;1759456;81;20511;-73
2021/04/19 01:45:35;;;;;;;;;;;;;;;8.34;86.39;101374.09;1759668;81;20284;-73
2021/04/19 01:48:03;;;;;;;;;;;;;;;8.28;86.73;101370.05;1762079;81;20394;-73
2021/04/19 01:50:31;;;;;;;;;;;;;;;8.26;87.08;101364.53;1761659;81;20216;-73
2021/04/19 01:53:00;;;;;;;;;;;;;;;8.26;87.40;101364.53;1761576;81;21676;-74
2021/04/19 01:55:30;;;;;;;;;;;;;;;8.26;87.61;101356.78;1761661;81;20529;-74
2021/04/19 01:58:06;;;;;;;;;;;;;;;8.26;87.85;101350.31;1761612;81;20253;-74
2021/04/19 02:00:37;;;;;;;;;;;;;;;8.24;88.16;101350.81;1761584;81;20542;-74
2021/04/19 02:03:08;;;;;;;;;;;;;;;8.19;88.31;101341.16;1761655;81;20283;-74
2021/04/19 02:05:41;;;;;;;;;;;;;;;8.15;88.48;101348.66;1761683;81;21209;-73
2021/04/19 02:08:28;;;;;;;;;;;;;;;8.06;88.72;101346.03;1761642;81;20286;-74
2021/04/19 02:11:00;;;;;;;;;;;;;;;8.05;88.97;101351.26;1761687;81;20244;-74
2021/04/19 02:13:42;;;;;;;;;;;;;;;7.99;89.19;101342.04;1761687;81;20506;-74
2021/04/19 02:16:14;;;;;;;;;;;;;;;7.95;89.42;101344.37;1736298;81;20169;-74
2021/04/19 02:18:48;;;;;;;;;;;;;;;7.86;89.71;101333.15;1761772;81;21207;-74
2021/04/19 02:21:22;;;;;;;;;;;;;;;7.77;90.10;101339.56;1757862;81;20245;-74
2021/04/19 02:23:52;;;;;;;;;;;;;;;7.69;90.47;101343.40;1761860;81;20228;-75
2021/04/19 02:26:25;;;;;;;;;;;;;;;7.63;91.05;101343.19;1763868;81;20228;-74
2021/04/19 02:29:03;;;;;;;;;;;;;;;7.61;91.46;101345.01;1762300;81;20224;-74
2021/04/19 02:31:37;;;;;;;;;;;;;;;7.58;91.67;101343.85;1761712;81;22911;-73
2021/04/19 02:34:08;;;;;;;;;;;;;;;7.55;91.99;101343.98;1761677;81;20149;-74
2021/04/19 02:36:46;;;;;;;;;;;;;;;7.52;92.32;101343.27;1761790;81;20129;-74
2021/04/19 02:39:14;;;;;;;;;;;;;;;7.46;92.65;101348.25;1761793;81;20798;-74
2021/04/19 02:41:42;;;;;;;;;;;;;;;7.39;92.88;101350.25;1761815;81;20495;-75
2021/04/19 02:44:10;;;;;;;;;;;;;;;7.35;93.21;101353.01;1761590;81;22396;-74
2021/04/19 02:46:55;;;;;;;;;;;;;;;7.32;93.50;101357.86;1760495;81;20196;-74
2021/04/19 02:49:26;;;;;;;;;;;;;;;7.27;93.67;101351.21;1761681;81;20216;-74
2021/04/19 02:51:54;;;;;;;;;;;;;;;7.23;93.88;101346.63;1761687;81;21090;-74
2021/04/19 02:54:23;;;;;;;;;;;;;;;7.19;94.03;101347.64;1761720;81;20161;-75
2021/04/19 02:56:51;;;;;;;;;;;;;;;7.19;94.35;101355.83;1761650;81;21263;-74
2021/04/19 02:59:20;;;;;;;;;;;;;;;7.19;94.62;101361.00;1735978;81;20196;-74
2021/04/19 03:01:50;;;;;;;;;;;;;;;7.18;94.75;101361.92;1761782;81;20113;-74
2021/04/19 03:04:21;;;;;;;;;;;;;;;7.18;94.87;101360.62;1762937;81;21357;-74
2021/04/19 03:06:52;;;;;;;;;;;;;;;7.13;94.96;101356.09;1761108;81;20241;-74
2021/04/19 03:09:22;;;;;;;;;;;;;;;7.08;95.09;101351.13;1761843;81;22198;-74
2021/04/19 03:11:54;;;;;;;;;;;;;;;7.02;95.26;101347.48;1736162;81;20216;-74
2021/04/19 03:14:24;;;;;;;;;;;;;;;6.97;95.44;101352.00;1760476;81;20221;-74
2021/04/19 03:17:03;;;;;;;;;;;;;;;6.90;95.64;101353.98;1761283;81;21015;-75
2021/04/19 03:19:35;;;;;;;;;;;;;;;6.87;95.89;101354.55;1758079;81;20224;-74
2021/04/19 03:22:04;;;;;;;;;;;;;;;6.87;96.18;101346.36;1761816;81;22545;-74
2021/04/19 03:24:33;;;;;;;;;;;;;;;6.85;96.42;101353.34;1761722;81;20539;-74
2021/04/19 03:27:06;;;;;;;;;;;;;;;6.83;96.53;101350.41;1761726;81;20267;-74
2021/04/19 03:29:35;;;;;;;;;;;;;;;6.82;96.77;101355.20;1761357;81;21200;-74
2021/04/19 03:32:08;;;;;;;;;;;;;;;6.82;97.01;101352.61;1761031;81;20276;-74
2021/04/19 03:34:40;;;;;;;;;;;;;;;6.84;97.26;101358.09;1761688;81;21199;-76
2021/04/19 03:37:14;;;;;;;;;;;;;;;6.87;97.31;101362.29;1761697;81;20504;-75
2021/04/19 03:42:30;;;;;;;;;;;;;;;6.90;97.50;101363.02;1769423;81;20145;-75
2021/04/19 03:44:58;;;;;;;;;;;;;;;6.91;97.66;101358.25;1769976;81;20153;-75
2021/04/19 03:47:28;;;;;;;;;;;;;;;6.91;97.56;101350.51;1734706;82;21224;-75
2021/04/19 03:49:58;;;;;;;;;;;;;;;6.91;97.42;101353.09;1734837;82;20164;-75
2021/04/19 03:52:30;;;;;;;;;;;;;;;6.90;97.43;101357.85;1736240;82;20134;-75
2021/04/19 03:54:58;;;;;;;;;;;;;;;6.90;97.32;101358.30;1736305;82;20719;-75
2021/04/19 03:57:26;;;;;;;;;;;;;;;6.88;96.93;101361.40;1736282;82;20487;-75
2021/04/19 03:59:57;;;;;;;;;;;;;;;6.84;96.63;101364.99;1736124;82;21301;-75
2021/04/19 04:02:26;;;;;;;;;;;;;;;6.82;96.88;101368.09;1732999;82;20256;-75
2021/04/19 04:05:03;;;;;;;;;;;;;;;6.83;97.41;101363.30;1735858;82;20236;-75
2021/04/19 04:07:41;;;;;;;;;;;;;;;6.84;97.84;101359.39;1717347;82;20220;-75
2021/04/19 04:10:11;;;;;;;;;;;;;;;6.85;98.14;101359.78;1715376;82;20574;-75
2021/04/19 04:12:40;;;;;;;;;;;;;;;6.89;98.40;101365.67;1683250;82;21389;-76
2021/04/19 04:15:09;;;;;;;;;;;;;;;6.96;98.54;101361.08;1715629;82;20260;-76
2021/04/19 04:17:40;;;;;;;;;;;;;;;7.03;98.56;101356.91;1736265;82;20503;-74
2021/04/19 04:20:12;;;;;;;;;;;;;;;7.12;98.48;101356.98;1734662;82;20304;-75
2021/04/19 04:22:41;;;;;;;;;;;;;;;7.19;98.29;101352.80;1737841;82;20299;-74
2021/04/19 04:25:11;;;;;;;;;;;;;;;7.27;98.12;101353.34;1737566;82;21207;-75
2021/04/19 04:27:39;;;;;;;;;;;;;;;7.34;97.90;101356.48;1736076;82;20318;-75
2021/04/19 04:30:08;;;;;;;;;;;;;;;7.39;97.72;101358.44;1736050;82;20221;-75
2021/04/19 04:32:40;;;;;;;;;;;;;;;7.45;97.95;101361.61;1734619;82;20927;-76
2021/04/19 04:35:11;;;;;;;;;;;;;;;7.54;98.14;101355.20;1728096;82;20280;-76
2021/04/19 04:37:39;;;;;;;;;;;;;;;7.63;98.47;101352.67;1736095;82;21216;-75
2021/04/19 04:40:13;;;;;;;;;;;;;;;7.71;98.48;101353.20;1735727;82;20917;-76
2021/04/19 04:42:43;;;;;;;;;;;;;;;7.81;98.62;101354.48;1737024;82;20217;-78
2021/04/19 04:45:12;;;;;;;;;;;;;;;7.92;98.54;101360.01;1736036;82;20323;-74
2021/04/19 04:47:58;;;;;;;;;;;;;;;8.05;98.27;101358.56;1736109;82;20213;-74
2021/04/19 04:50:48;;;;;;;;;;;;;;;8.16;97.72;101359.39;1736024;81;22457;-77
2021/04/19 04:53:18;;;;;;;;;;;;;;;8.25;97.22;101358.97;1735550;82;20887;-78
2021/04/19 04:55:49;;;;;;;;;;;;;;;8.32;96.77;101361.25;1736023;82;20314;-78
2021/04/19 04:58:19;;;;;;;;;;;;;;;8.40;96.42;101359.14;1736283;82;20264;-75
2021/04/19 05:00:46;;;;;;;;;;;;;;;8.49;96.04;101361.30;1738628;81;20177;-76
2021/04/19 05:03:14;;;;;;;;;;;;;;;8.53;95.73;101355.53;1738851;81;21187;-77
2021/04/19 05:05:44;;;;;;;;;;;;;;;8.57;95.53;101348.02;1736255;82;20503;-76
2021/04/19 05:08:13;;;;;;;;;;;;;;;8.63;95.18;101345.59;1715889;82;20229;-78
2021/04/19 05:10:40;;;;;;;;;;;;;;;8.69;94.63;101341.42;1736243;82;20252;-77
2021/04/19 05:13:16;;;;;;;;;;;;;;;8.75;94.10;101343.27;1736451;82;20492;-78
2021/04/19 05:15:47;;;;;;;;;;;;;;;8.85;93.07;101348.84;1736720;82;22256;-76
2021/04/19 05:18:15;;;;;;;;;;;;;;;8.94;92.40;101341.47;1736062;82;20225;-77
2021/04/19 05:20:45;;;;;;;;;;;;;;;9.01;92.00;101342.86;1736064;82;20249;-76
2021/04/19 05:23:13;;;;;;;;;;;;;;;9.07;91.83;101343.00;1736053;82;20309;-75
2021/04/19 05:25:43;;;;;;;;;;;;;;;9.14;91.68;101339.66;1735947;82;20280;-76
2021/04/19 05:28:12;;;;;;;;;;;;;;;9.20;91.48;101346.67;1736113;82;21207;-76
2021/04/19 05:30:51;;;;;;;;;;;;;;;9.25;91.14;101342.57;1736135;82;20157;-76
2021/04/19 05:33:25;;;;;;;;;;;;;;;9.32;90.78;101342.63;1736160;81;20213;-77
2021/04/19 05:35:53;;;;;;;;;;;;;;;9.37;90.48;101339.37;1736103;82;20215;-77
2021/04/19 05:38:22;;;;;;;;;;;;;;;9.42;90.12;101337.37;1736889;82;20221;-76
2021/04/19 05:40:52;;;;;;;;;;;;;;;9.52;89.70;101329.52;1740084;81;21776;-78
2021/04/19 05:43:19;;;;;;;;;;;;;;;9.57;89.43;101323.17;1736742;82;20248;-76
2021/04/19 05:45:48;;;;;;;;;;;;;;;9.62;89.26;101329.43;1736247;82;20145;-76
2021/04/19 05:48:17;;;;;;;;;;;;;;;9.68;89.17;101323.92;1736290;82;20315;-77
2021/04/19 05:50:45;;;;;;;;;;;;;;;9.80;88.52;101328.92;1736162;81;20558;-77
2021/04/19 05:53:13;;;;;;;;;;;;;;;9.94;88.16;101332.94;1736409;82;21204;-76
2021/04/19 05:55:43;;;;;;;;;;;;;;;10.13;87.58;101340.58;1736149;81;20284;-77
2021/04/19 05:58:24;;;;;;;;;;;;;;;10.31;86.82;101328.78;1736145;82;20117;-77
2021/04/19 06:01:05;;;;;;;;;;;;;;;10.56;86.03;101330.41;1736170;82;20770;-79
2021/04/19 06:03:39;;;;;;;;;;;;;;;10.83;84.47;101333.70;1736433;82;20495;-77
2021/04/19 06:06:15;;;;;;;;;;;;;;;11.05;83.15;101331.55;1736915;82;21153;-76
2021/04/19 06:08:54;;;;;;;;;;;;;;;11.22;81.64;101335.78;1736105;82;20241;-77
2021/04/19 06:11:27;;;;;;;;;;;;;;;11.37;80.51;101330.53;1734882;81;20188;-77
2021/04/19 06:14:17;;;;;;;;;;;;;;;11.61;78.89;101324.36;1856283;77;20233;-77
2021/04/19 06:16:46;;;;;;;;;;;;;;;11.78;78.02;101328.09;1828144;78;20148;-76
2021/04/19 06:19:17;;;;;;;;;;;;;;;11.98;77.55;101322.98;1824482;78;21208;-77
2021/04/19 06:21:47;;;;;;;;;;;;;;;12.16;76.84;101338.30;1810028;78;20532;-77
2021/04/19 06:24:14;;;;;;;;;;;;;;;12.30;75.38;101342.66;1794402;80;20174;-77
2021/04/19 06:26:42;;;;;;;;;;;;;;;12.38;74.71;101346.09;1794523;80;20131;-79
2021/04/19 06:29:16;;;;;;;;;;;;;;;12.52;74.38;101339.07;1797119;80;20178;-80
2021/04/19 06:31:50;;;;;;;;;;;;;;;12.72;73.42;101332.59;1797402;80;21208;-80
2021/04/19 06:34:20;;;;;;;;;;;;;;;12.80;71.49;101331.63;1797418;80;20175;-80
2021/04/19 06:36:50;;;;;;;;;;;;;;;12.79;70.24;101329.13;1796347;80;20187;-80
2021/04/19 06:39:21;;;;;;;;;;;;;;;12.81;70.35;101322.05;1797371;80;20135;-84
2021/04/19 06:42:34;;;;;;;;;;;;;;;12.96;70.37;101327.55;1795635;80;20321;-78
2021/04/19 06:45:05;;;;;;;;;;;;;;;13.09;69.01;101328.45;1797008;79;21190;-76
2021/04/19 06:47:35;;;;;;;;;;;;;;;13.18;68.02;101331.75;1795254;80;20222;-76
2021/04/19 06:50:05;;;;;;;;;;;;;;;13.25;67.06;101330.42;1796195;80;20135;-76
2021/04/19 06:52:36;;;;;;;;;;;;;;;13.28;66.36;101335.42;1794549;79;20135;-78
2021/04/19 06:55:06;;;;;;;;;;;;;;;13.25;65.68;101332.56;1796545;80;20135;-79
2021/04/19 06:57:36;;;;;;;;;;;;;;;13.31;65.65;101344.80;1796394;80;21411;-77
2021/04/19 07:00:05;;;;;;;;;;;;;;;13.28;64.06;101341.94;1795666;80;20166;-82
2021/04/19 07:02:39;;;;;;;;;;;;;;;13.23;62.87;101349.24;1793940;80;20198;-77
2021/04/19 07:05:12;;;;;;;;;;;;;;;13.27;63.91;101352.48;1789662;80;20317;-76
2021/04/19 07:07:50;;;;;;;;;;;;;;;13.36;63.24;101353.17;1794954;80;20256;-76
2021/04/19 07:10:18;;;;;;;;;;;;;;;13.36;63.10;101359.70;1797434;79;21202;-80
2021/04/19 07:12:46;;;;;;;;;;;;;;;13.40;63.63;101354.16;1785788;80;20352;-77
2021/04/19 07:15:16;;;;;;;;;;;;;;;13.36;63.52;101351.87;1764234;81;20100;-80
2021/04/19 07:17:48;;;;;;;;;;;;;;;13.35;63.90;101353.64;1763605;81;20131;-78
2021/04/19 07:20:18;;;;;;;;;;;;;;;13.43;63.75;101344.86;1764027;80;20309;-78
2021/04/19 07:22:45;;;;;;;;;;;;;;;13.50;63.95;101347.39;1764647;81;21209;-78
2021/04/19 07:25:13;;;;;;;;;;;;;;;13.69;63.67;101341.30;1763201;81;20120;-78
2021/04/19 07:27:41;;;;;;;;;;;;;;;13.84;62.80;101350.33;1762276;81;20587;-78
2021/04/19 07:30:11;;;;;;;;;;;;;;;13.93;62.00;101350.53;1765009;81;20222;-80
2021/04/19 07:33:00;;;;;;;;;;;;;;;13.98;61.76;101347.12;1753823;80;20155;-79
2021/04/19 07:36:03;;;;;;;;;;;;;;;14.08;60.80;101345.55;1764672;81;20127;-79
2021/04/19 07:38:32;;;;;;;;;;;;;;;14.17;60.44;101346.67;1721070;81;20225;-77
2021/04/19 07:41:03;;;;;;;;;;;;;;;14.35;59.49;101339.38;1765426;81;20213;-80
2021/04/19 07:43:38;;;;;;;;;;;;;;;14.44;59.13;101331.72;1765217;81;20146;-81
2021/04/19 07:46:14;;;;;;;;;;;;;;;14.52;57.89;101324.16;1764419;81;20545;-79
2021/04/19 07:48:53;;;;;;;;;;;;;;;14.52;56.08;101322.84;1764523;81;22124;-80
2021/04/19 07:51:50;;;;;;;;;;;;;;;14.53;56.17;101323.69;1753597;81;20151;-77
2021/04/19 07:54:22;;;;;;;;;;;;;;;14.66;54.80;101325.31;1762795;81;20207;-78
2021/04/19 07:56:58;;;;;;;;;;;;;;;14.59;53.45;101321.94;1763166;80;20168;-78
2021/04/19 07:59:30;;;;;;;;;;;;;;;14.59;52.62;101315.41;1763358;80;20115;-79
2021/04/19 08:02:13;;;;;;;;;;;;;;;14.80;51.56;101305.53;1763103;80;21706;-77
2021/04/19 08:04:46;;;;;;;;;;;;;;;15.00;51.76;101304.53;1763596;81;20190;-80
2021/04/19 08:07:24;;;;;;;;;;;;;;;15.08;51.13;101306.95;1762778;80;20151;-80
2021/04/19 08:09:59;;;;;;;;;;;;;;;15.13;51.57;101307.44;1763653;81;20216;-77
2021/04/19 08:12:42;;;;;;;;;;;;;;;15.23;54.01;101308.88;1764000;79;20163;-80
2021/04/19 08:15:16;;;;;;;;;;;;;;;15.30;53.78;101309.62;1796496;80;21204;-77
2021/04/19 08:17:44;;;;;;;;;;;;;;;15.32;52.73;101311.64;1797645;80;20135;-78
2021/04/19 08:20:15;;;;;;;;;;;;;;;15.32;52.50;101305.10;1794194;80;20489;-80
2021/04/19 08:25:52;;;;;;;;;;;;;;;15.19;51.04;101303.05;1819590;79;20256;-77
2021/04/19 08:28:28;;;;;;;;;;;;;;;15.28;51.52;101299.73;1793530;78;20158;-79
2021/04/19 08:30:57;;;;;;;;;;;;;;;15.46;51.40;101298.00;1792658;80;21214;-79
2021/04/19 08:33:27;;;;;;;;;;;;;;;15.62;48.66;101297.22;1791973;80;20126;-79
2021/04/19 08:35:56;;;;;;;;;;;;;;;15.72;49.08;101296.40;1793023;80;20221;-79
2021/04/19 08:38:24;;;;;;;;;;;;;;;15.87;48.90;101295.20;1792180;79;20197;-79
2021/04/19 08:40:53;;;;;;;;;;;;;;;16.02;48.91;101298.39;1791272;80;20510;-80
2021/04/19 08:43:29;;;;;;;;;;;;;;;16.00;47.28;101292.45;1792012;80;21187;-80
2021/04/19 08:45:57;;;;;;;;;;;;;;;16.02;46.17;101301.01;1791891;80;20177;-78
2021/04/19 08:48:25;;;;;;;;;;;;;;;15.92;44.62;101301.40;1791283;79;20165;-78
2021/04/19 08:50:56;;;;;;;;;;;;;;;15.88;44.46;101303.89;1791433;80;20126;-80
2021/04/19 08:53:24;;;;;;;;;;;;;;;15.92;44.97;101296.16;1791705;80;20780;-79
2021/04/19 08:55:52;;;;;;;;;;;;;;;15.99;45.53;101297.33;1794418;80;21373;-79
2021/04/19 08:58:19;;;;;;;;;;;;;;;16.12;46.00;101293.27;1793432;80;20507;-77
2021/04/19 09:00:53;;;;;;;;;;;;;;;16.24;46.37;101292.31;1792107;80;20150;-78
2021/04/19 09:03:22;;;;;;;;;;;;;;;16.34;46.24;101290.59;1792002;80;20188;-78
2021/04/19 09:05:50;;;;;;;;;;;;;;;16.43;45.88;101298.55;1792967;80;20150;-82
2021/04/19 09:08:22;;;;;;;;;;;;;;;16.56;45.35;101298.42;1793759;80;21603;-82
2021/04/19 09:10:53;;;;;;;;;;;;;;;16.53;44.34;101293.41;1792003;80;20296;-80
2021/04/19 09:13:31;;;;;;;;;;;;;;;16.39;44.96;101290.61;1792254;79;20200;-79
2021/04/19 09:16:22;;;;;;;;;;;;;;;16.38;45.33;101293.34;1793344;79;20154;-77
2021/04/19 09:18:56;;;;;;;;;;;;;;;16.44;45.30;101290.22;1792721;80;20233;-81
2021/04/19 09:21:40;;;;;;;;;;;;;;;16.47;45.38;101287.35;1792107;78;21154;-80
2021/04/19 09:24:17;;;;;;;;;;;;;;;16.44;45.22;101287.60;1785123;80;20155;-79
2021/04/19 09:27:01;;;;;;;;;;;;;;;16.45;45.63;101280.11;1780887;80;20235;-80
2021/04/19 09:29:35;;;;;;;;;;;;;;;16.47;43.76;101281.28;1779905;80;20273;-80
2021/04/19 09:32:07;;;;;;;;;;;;;;;16.38;43.52;101280.24;1780168;80;20329;-76
2021/04/19 09:34:40;;;;;;;;;;;;;;;16.22;43.72;101281.11;1780797;80;21259;-79
2021/04/19 09:37:27;;;;;;;;;;;;;;;16.31;44.38;101281.68;1781733;80;20743;-81
2021/04/19 09:40:02;;;;;;;;;;;;;;;16.62;44.41;101281.41;1778882;80;20147;-81
2021/04/19 09:43:05;;;;;;;;;;;;;;;16.76;44.17;101269.29;1785883;78;20176;-80
2021/04/19 09:45:46;;;;;;;;;;;;;;;16.75;43.73;101269.77;1802533;79;20248;-78
2021/04/19 09:48:38;;;;;;;;;;;;;;;16.70;43.42;101267.18;1801162;79;21360;-81
2021/04/19 09:51:29;;;;;;;;;;;;;;;16.71;44.05;101265.75;1803269;79;20136;-74
2021/04/19 09:54:04;;;;;;;;;;;;;;;16.83;43.10;101265.22;1803198;79;20117;-78
2021/04/19 09:56:37;;;;;;;;;;;;;;;16.71;42.56;101262.30;1802143;79;20117;-82
2021/04/19 09:59:10;;;;;;;;;;;;;;;16.63;42.48;101266.84;1757693;76;20146;-77
2021/04/19 10:01:39;;;;;;;;;;;;;;;16.58;42.93;101262.47;1756934;81;21262;-76
2021/04/19 10:04:06;;;;;;;;;;;;;;;16.73;43.02;101261.69;1756847;81;20165;-77
2021/04/19 10:06:46;;;;;;;;;;;;;;;16.98;42.90;101275.73;1767249;81;20113;-79
2021/04/19 10:09:24;;;;;;;;;;;;;;;17.37;42.50;101263.70;1767725;81;20133;-79
2021/04/19 10:12:01;;;;;;;;;;;;;;;17.66;40.95;101263.39;1768506;81;20121;-79
2021/04/19 10:14:36;;;;;;;;;;;;;;;17.81;40.30;101252.88;1768262;81;21208;-78
2021/04/19 10:17:18;;;;;;;;;;;;;;;18.05;39.95;101255.16;1769898;81;20137;-79
2021/04/19 10:19:48;;;;;;;;;;;;;;;18.24;39.51;101249.11;1768236;81;20494;-77
2021/04/19 10:22:17;;;;;;;;;;;;;;;18.54;39.48;101245.58;1767355;81;20224;-78
2021/04/19 10:24:58;;;;;;;;;;;;;;;18.94;39.12;101244.45;1767302;81;20237;-76
2021/04/19 10:27:32;;;;;;;;;;;;;;;19.29;38.51;101235.91;1763293;81;21206;-78
2021/04/19 10:30:14;;;;;;;;;;;;;;;19.43;37.50;101238.61;1762287;81;20236;-78
2021/04/19 10:32:43;;;;;;;;;;;;;;;19.23;36.59;101226.45;1762852;81;20507;-82
2021/04/19 10:35:34;;;;;;;;;;;;;;;18.86;37.48;101225.89;1763392;81;20149;-79
2021/04/19 10:38:03;;;;;;;;;;;;;;;18.95;38.83;101215.03;1723032;83;20160;-82
2021/04/19 10:40:39;;;;;;;;;;;;;;;19.32;37.51;101211.11;1772314;81;21201;-79
2021/04/19 10:43:08;;;;;;;;;;;;;;;19.72;37.96;101200.30;1742125;82;20253;-79
2021/04/19 10:45:39;;;;;;;;;;;;;;;20.43;36.63;101202.05;1740560;82;20214;-78
2021/04/19 10:48:21;;;;;;;;;;;;;;;20.90;34.85;101197.81;1740960;82;20187;-80
2021/04/19 10:50:53;;;;;;;;;;;;;;;21.49;33.32;101196.52;1741612;82;20338;-81
2021/04/19 10:53:37;;;;;;;;;;;;;;;21.93;32.80;101185.77;1741382;82;22270;-79
2021/04/19 10:56:08;;;;;;;;;;;;;;;22.28;31.81;101182.86;1742528;82;20257;-79
2021/04/19 10:58:38;;;;;;;;;;;;;;;22.73;31.38;101178.91;1742511;82;20282;-79
2021/04/19 11:01:09;;;;;;;;;;;;;;;23.03;30.48;101184.83;1741660;82;20178;-80
2021/04/19 11:03:46;;;;;;;;;;;;;;;23.65;30.58;101181.80;1714592;82;20165;-82
2021/04/19 11:06:22;;;;;;;;;;;;;;;23.92;30.26;101182.66;1742586;82;20217;-84
2021/04/19 11:09:00;;;;;;;;;;;;;;;23.99;29.85;101176.16;1743038;82;20127;-79
2021/04/19 11:11:40;;;;;;;;;;;;;;;23.79;29.17;101175.78;1741093;82;20233;-79
2021/04/19 11:14:25;;;;;;;;;;;;;;;23.24;31.20;101169.70;1741619;82;20222;-79
2021/04/19 11:17:00;;;;;;;;;;;;;;;23.14;30.80;101164.10;1741503;82;20229;-82
2021/04/19 11:19:44;;;;;;;;;;;;;;;23.04;30.39;101168.77;1733679;82;21191;-79
2021/04/19 11:22:27;;;;;;;;;;;;;;;23.11;31.01;101167.58;1734339;83;20163;-79
2021/04/19 11:25:18;;;;;;;;;;;;;;;23.27;30.35;101164.05;1729063;81;20163;-79
2021/04/19 11:27:49;;;;;;;;;;;;;;;23.42;30.16;101165.84;1728979;81;20123;-79
2021/04/19 11:30:24;;;;;;;;;;;;;;;23.15;30.99;101160.96;1729634;83;20186;-81
2021/04/19 11:33:08;;;;;;;;;;;;;;;23.17;31.74;101161.61;1729047;83;22188;-80
2021/04/19 11:35:45;;;;;;;;;;;;;;;23.55;30.68;101162.64;1728765;83;20238;-77
2021/04/19 11:38:18;;;;;;;;;;;;;;;23.33;30.07;101157.58;1729385;83;20127;-78
2021/04/19 11:41:02;;;;;;;;;;;;;;;23.04;30.08;101159.98;1729429;83;20128;-83
2021/04/19 11:43:54;;;;;;;;;;;;;;;22.74;30.36;101153.62;1726570;81;20241;-79
2021/04/19 11:46:23;;;;;;;;;;;;;;;22.16;31.09;101153.77;1716328;82;21204;-82
2021/04/19 11:48:54;;;;;;;;;;;;;;;21.56;32.11;101154.45;1718986;83;20664;-82
2021/04/19 11:51:22;;;;;;;;;;;;;;;20.92;33.12;101155.77;1719233;82;20213;-85
2021/04/19 11:53:50;;;;;;;;;;;;;;;20.35;34.24;101154.54;1720746;83;20157;-83
2021/04/19 11:56:22;;;;;;;;;;;;;;;19.81;34.86;101157.28;1719511;83;20209;-83
2021/04/19 11:58:54;;;;;;;;;;;;;;;19.34;36.40;101151.25;1719338;83;22384;-80
2021/04/19 12:01:22;;;;;;;;;;;;;;;18.97;37.13;101156.53;1719050;82;20849;-81
2021/04/19 12:03:51;;;;;;;;;;;;;;;18.64;37.59;101156.53;1719344;83;20516;-80
2021/04/19 12:06:19;;;;;;;;;;;;;;;18.36;38.03;101158.67;1719278;83;20473;-80
2021/04/19 12:08:49;;;;;;;;;;;;;;;18.07;39.25;101149.47;1719992;83;20197;-84
2021/04/19 12:11:22;;;;;;;;;;;;;;;17.84;39.57;101146.27;1720706;83;21199;-82
2021/04/19 12:14:01;;;;;;;;;;;;;;;17.68;39.69;101142.02;1720132;83;20408;-80
2021/04/19 12:16:32;;;;;;;;;;;;;;;17.56;40.44;101143.11;1726448;82;20531;-83
2021/04/19 12:19:04;;;;;;;;;;;;;;;17.41;40.16;101130.83;1719584;83;20103;-79
2021/04/19 12:21:34;;;;;;;;;;;;;;;17.30;40.24;101126.97;1711522;79;20284;-79
2021/04/19 12:24:07;;;;;;;;;;;;;;;17.31;40.40;101124.70;1692436;85;21198;-81
2021/04/19 12:27:01;;;;;;;;;;;;;;;17.23;40.57;101132.40;1633682;88;20584;-80
2021/04/19 12:29:30;;;;;;;;;;;;;;;17.21;40.80;101121.69;1633517;88;20242;-84
2021/04/19 12:32:02;;;;;;;;;;;;;;;17.20;40.59;101110.37;1633987;88;20223;-81
2021/04/19 12:34:41;;;;;;;;;;;;;;;17.07;40.93;101112.89;1609388;88;20148;-82
2021/04/19 12:37:36;;;;;;;;;;;;;;;17.01;41.25;101112.11;1629219;87;21392;-82
2021/04/19 12:40:08;;;;;;;;;;;;;;;16.98;41.48;101113.18;1629928;88;20147;-81
2021/04/19 12:42:38;;;;;;;;;;;;;;;16.95;41.53;101108.20;1612043;88;20227;-83
2021/04/19 12:45:20;;;;;;;;;;;;;;;16.98;41.58;101102.69;1630024;87;21645;-80
2021/04/19 12:51:32;;;;;;;;;;;;;;;17.11;41.38;101082.80;1552146;90;20568;-82
2021/04/19 12:54:01;;;;;;;;;;;;;;;17.63;40.76;101075.16;1532854;92;21443;-82
2021/04/19 12:56:31;;;;;;;;;;;;;;;18.27;39.44;101074.95;1550431;92;20308;-81
2021/04/19 12:59:00;;;;;;;;;;;;;;;18.50;38.05;101074.19;1552880;91;20251;-81
2021/04/19 13:01:34;;;;;;;;;;;;;;;18.33;38.31;101073.56;1561278;90;20331;-80
2021/04/19 13:04:04;;;;;;;;;;;;;;;18.13;38.89;101059.61;1557663;90;21259;-77
2021/04/19 13:06:32;;;;;;;;;;;;;;;17.96;39.40;101058.52;1563174;90;20507;-81
2021/04/19 13:09:01;;;;;;;;;;;;;;;17.82;39.41;101048.45;1565702;90;20316;-81
2021/04/19 13:11:34;;;;;;;;;;;;;;;17.65;39.87;101049.59;1556363;92;20774;-79
2021/04/19 13:14:05;;;;;;;;;;;;;;;17.48;40.11;101040.59;1560635;90;20281;-81
2021/04/19 13:16:35;;;;;;;;;;;;;;;17.51;40.51;101033.77;1562486;90;21442;-82
2021/04/19 13:19:04;;;;;;;;;;;;;;;17.62;40.49;101031.50;1556083;92;20313;-81